createdAt,value
2018-06-10T00:00:06.271Z,19.15
2018-06-10T00:01:06.246Z,19.13
2018-06-10T00:02:06.226Z,19.10
2018-06-10T00:03:06.243Z,19.10
2018-06-10T00:04:06.183Z,19.05
2018-06-10T00:05:06.155Z,19.09
2018-06-10T00:06:06.135Z,19.05
2018-06-10T00:07:06.148Z,19.06
2018-06-10T00:08:06.096Z,19.06
2018-06-10T00:09:06.061Z,19.02
2018-06-10T00:10:06.037Z,19.02
2018-06-10T00:11:06.062Z,18.99
2018-06-10T00:12:05.991Z,19.09
2018-06-10T00:13:05.966Z,19.07
2018-06-10T00:14:05.947Z,19.02
2018-06-10T00:15:05.973Z,19.00
2018-06-10T00:16:05.905Z,19.06
2018-06-10T00:17:05.876Z,19.05
2018-06-10T00:18:05.896Z,19.05
2018-06-10T00:19:05.831Z,19.12
2018-06-10T00:20:05.821Z,19.02
2018-06-10T00:21:06.508Z,19.00
2018-06-10T00:22:05.805Z,18.96
2018-06-10T00:23:05.743Z,19.00
2018-06-10T00:24:05.718Z,19.00
2018-06-10T00:25:05.700Z,19.05
2018-06-10T00:26:05.669Z,19.05
2018-06-10T00:27:05.716Z,19.07
2018-06-10T00:28:05.624Z,19.02
2018-06-10T00:29:05.602Z,19.05
2018-06-10T00:30:05.587Z,19.06
2018-06-10T00:31:05.558Z,19.02
2018-06-10T00:32:05.586Z,18.90
2018-06-10T00:33:05.509Z,18.90
2018-06-10T00:34:05.487Z,18.86
2018-06-10T00:35:05.464Z,18.82
2018-06-10T00:36:05.449Z,18.79
2018-06-10T00:37:05.476Z,18.82
2018-06-10T00:38:05.391Z,18.81
2018-06-10T00:39:05.371Z,18.79
2018-06-10T00:40:05.348Z,18.71
2018-06-10T00:41:05.330Z,18.76
2018-06-10T00:42:05.356Z,18.72
2018-06-10T00:43:05.280Z,18.68
2018-06-10T00:44:05.261Z,18.69
2018-06-10T00:45:05.276Z,18.65
2018-06-10T00:46:05.229Z,18.61
2018-06-10T00:47:05.183Z,18.66
2018-06-10T00:48:05.220Z,18.65
2018-06-10T00:49:05.134Z,18.61
2018-06-10T00:50:05.111Z,18.54
2018-06-10T00:51:05.100Z,18.53
2018-06-10T00:52:05.070Z,18.44
2018-06-10T00:53:05.108Z,18.51
2018-06-10T00:54:05.029Z,18.49
2018-06-10T00:55:04.998Z,18.49
2018-06-10T00:56:05.516Z,18.51
2018-06-10T00:57:04.952Z,18.45
2018-06-10T00:58:04.975Z,18.53
2018-06-10T00:59:04.903Z,18.36
2018-06-10T01:00:04.879Z,18.45
2018-06-10T01:01:04.853Z,18.32
2018-06-10T01:02:04.831Z,18.39
2018-06-10T01:03:04.850Z,18.42
2018-06-10T01:04:04.788Z,18.45
2018-06-10T01:05:04.777Z,18.50
2018-06-10T01:06:04.747Z,18.50
2018-06-10T01:07:04.761Z,18.56
2018-06-10T01:08:04.757Z,18.53
2018-06-10T01:09:04.679Z,18.53
2018-06-10T01:10:04.645Z,18.56
2018-06-10T01:11:04.635Z,18.50
2018-06-10T01:12:04.603Z,18.49
2018-06-10T01:13:04.622Z,18.47
2018-06-10T01:14:04.550Z,18.50
2018-06-10T01:15:04.530Z,18.54
2018-06-10T01:16:04.514Z,18.51
2018-06-10T01:17:04.482Z,18.47
2018-06-10T01:18:04.512Z,18.51
2018-06-10T01:19:04.438Z,18.47
2018-06-10T01:20:04.414Z,18.41
2018-06-10T01:21:04.386Z,18.38
2018-06-10T01:22:04.366Z,18.35
2018-06-10T01:23:04.401Z,18.39
2018-06-10T01:24:04.319Z,18.35
2018-06-10T01:25:04.376Z,18.38
2018-06-10T01:26:04.272Z,18.38
2018-06-10T01:27:04.245Z,18.32
2018-06-10T01:28:04.254Z,18.29
2018-06-10T01:29:04.197Z,18.23
2018-06-10T01:30:04.222Z,18.23
2018-06-10T01:31:04.215Z,18.21
2018-06-10T01:32:04.134Z,18.14
2018-06-10T01:33:04.114Z,18.16
2018-06-10T01:34:04.087Z,18.03
2018-06-10T01:35:04.065Z,18.05
2018-06-10T01:36:04.088Z,18.06
2018-06-10T01:37:04.016Z,18.02
2018-06-10T01:38:03.992Z,18.01
2018-06-10T01:39:04.020Z,17.99
2018-06-10T01:40:03.943Z,17.96
2018-06-10T01:41:03.972Z,17.99
2018-06-10T01:42:03.899Z,17.95
2018-06-10T01:43:03.894Z,17.87
2018-06-10T01:44:03.894Z,17.92
2018-06-10T01:45:03.823Z,17.92
2018-06-10T01:46:03.804Z,17.88
2018-06-10T01:47:03.780Z,17.90
2018-06-10T01:48:03.818Z,17.95
2018-06-10T01:49:03.783Z,17.79
2018-06-10T01:50:03.714Z,17.81
2018-06-10T01:51:03.692Z,17.81
2018-06-10T01:52:03.666Z,17.83
2018-06-10T01:53:03.669Z,17.80
2018-06-10T01:54:03.672Z,17.84
2018-06-10T01:55:03.589Z,17.87
2018-06-10T01:56:03.569Z,17.81
2018-06-10T01:57:03.539Z,17.80
2018-06-10T01:58:03.516Z,17.76
2018-06-10T01:59:03.536Z,17.77
2018-06-10T02:00:03.470Z,17.83
2018-06-10T02:01:03.457Z,17.83
2018-06-10T02:02:03.424Z,17.81
2018-06-10T02:03:03.397Z,17.81
2018-06-10T02:04:03.430Z,17.77
2018-06-10T02:05:03.362Z,17.65
2018-06-10T02:06:03.326Z,17.65
2018-06-10T02:07:03.593Z,17.58
2018-06-10T02:08:03.276Z,17.65
2018-06-10T02:09:04.035Z,17.62
2018-06-10T02:10:03.231Z,17.63
2018-06-10T02:11:03.212Z,17.62
2018-06-10T02:12:03.591Z,17.71
2018-06-10T02:13:03.162Z,17.74
2018-06-10T02:14:03.132Z,17.79
2018-06-10T02:15:03.111Z,17.84
2018-06-10T02:16:04.035Z,17.80
2018-06-10T02:17:03.123Z,17.84
2018-06-10T02:18:03.061Z,17.73
2018-06-10T02:19:03.531Z,17.66
2018-06-10T02:20:02.990Z,17.68
2018-06-10T02:21:02.966Z,17.63
2018-06-10T02:22:03.015Z,17.65
2018-06-10T02:23:03.537Z,17.60
2018-06-10T02:24:02.894Z,17.50
2018-06-10T02:25:02.878Z,17.52
2018-06-10T02:26:02.851Z,17.57
2018-06-10T02:27:02.867Z,17.57
2018-06-10T02:28:03.541Z,17.57
2018-06-10T02:29:02.826Z,17.52
2018-06-10T02:30:02.753Z,17.52
2018-06-10T02:31:03.538Z,17.52
2018-06-10T02:32:02.707Z,17.50
2018-06-10T02:33:02.693Z,17.52
2018-06-10T02:34:03.108Z,17.55
2018-06-10T02:35:02.725Z,17.54
2018-06-10T02:36:02.610Z,17.54
2018-06-10T02:37:02.585Z,17.55
2018-06-10T02:38:02.563Z,17.62
2018-06-10T02:39:02.586Z,17.69
2018-06-10T02:40:02.615Z,17.69
2018-06-10T02:41:03.042Z,17.65
2018-06-10T02:42:02.537Z,17.66
2018-06-10T02:43:02.452Z,17.69
2018-06-10T02:44:02.463Z,17.63
2018-06-10T02:45:02.397Z,17.60
2018-06-10T02:46:02.430Z,17.65
2018-06-10T02:47:02.342Z,17.66
2018-06-10T02:48:02.344Z,17.66
2018-06-10T02:49:02.307Z,17.74
2018-06-10T02:50:02.275Z,17.66
2018-06-10T02:51:02.299Z,17.60
2018-06-10T02:52:03.044Z,17.54
2018-06-10T02:53:02.215Z,17.57
2018-06-10T02:54:02.178Z,17.57
2018-06-10T02:55:02.614Z,17.62
2018-06-10T02:56:02.136Z,17.57
2018-06-10T02:57:02.112Z,17.55
2018-06-10T02:58:02.080Z,17.55
2018-06-10T02:59:02.062Z,17.50
2018-06-10T03:00:02.085Z,17.52
2018-06-10T03:01:02.025Z,17.65
2018-06-10T03:02:02.016Z,17.58
2018-06-10T03:03:02.543Z,17.49
2018-06-10T03:04:01.949Z,17.62
2018-06-10T03:05:01.957Z,17.65
2018-06-10T03:06:01.908Z,17.68
2018-06-10T03:07:01.904Z,17.66
2018-06-10T03:08:04.546Z,17.65
2018-06-10T03:09:01.826Z,17.66
2018-06-10T03:10:01.792Z,17.69
2018-06-10T03:11:01.831Z,17.66
2018-06-10T03:12:02.553Z,17.65
2018-06-10T03:13:01.768Z,17.71
2018-06-10T03:14:01.701Z,17.71
2018-06-10T03:15:02.549Z,17.83
2018-06-10T03:16:01.665Z,17.84
2018-06-10T03:17:01.632Z,17.79
2018-06-10T03:18:01.648Z,17.77
2018-06-10T03:19:02.106Z,17.81
2018-06-10T03:20:01.552Z,17.87
2018-06-10T03:21:01.528Z,17.86
2018-06-10T03:22:01.611Z,17.86
2018-06-10T03:23:01.535Z,17.94
2018-06-10T03:24:01.463Z,17.88
2018-06-10T03:25:02.048Z,17.99
2018-06-10T03:26:01.415Z,17.87
2018-06-10T03:27:01.388Z,17.92
2018-06-10T03:28:01.695Z,17.96
2018-06-10T03:29:01.408Z,17.87
2018-06-10T03:30:01.382Z,17.87
2018-06-10T03:31:02.098Z,17.98
2018-06-10T03:32:01.276Z,18.01
2018-06-10T03:33:01.253Z,17.99
2018-06-10T03:34:01.645Z,18.03
2018-06-10T03:35:02.064Z,18.10
2018-06-10T03:36:01.182Z,18.10
2018-06-10T03:37:02.071Z,18.06
2018-06-10T03:38:01.131Z,18.11
2018-06-10T03:39:01.152Z,18.16
2018-06-10T03:40:01.129Z,18.17
2018-06-10T03:41:01.113Z,18.13
2018-06-10T03:42:01.091Z,18.20
2018-06-10T03:43:01.007Z,18.26
2018-06-10T03:44:01.590Z,18.38
2018-06-10T03:45:00.962Z,18.29
2018-06-10T03:46:01.111Z,18.35
2018-06-10T03:47:00.919Z,18.31
2018-06-10T03:48:00.893Z,18.38
2018-06-10T03:49:00.864Z,18.53
2018-06-10T03:50:00.895Z,18.41
2018-06-10T03:51:00.818Z,18.47
2018-06-10T03:52:00.837Z,18.51
2018-06-10T03:53:00.773Z,18.57
2018-06-10T03:54:00.748Z,18.60
2018-06-10T03:55:01.571Z,18.61
2018-06-10T03:56:00.700Z,18.61
2018-06-10T03:57:00.743Z,18.68
2018-06-10T03:58:01.558Z,18.72
2018-06-10T03:59:00.633Z,18.72
2018-06-10T04:00:00.622Z,18.79
2018-06-10T04:01:00.584Z,18.93
2018-06-10T04:02:00.632Z,18.84
2018-06-10T04:03:00.540Z,18.94
2018-06-10T04:04:00.517Z,19.00
2018-06-10T04:05:01.061Z,19.02
2018-06-10T04:06:00.472Z,19.00
2018-06-10T04:07:00.496Z,19.02
2018-06-10T04:08:01.071Z,19.17
2018-06-10T04:09:00.402Z,19.13
2018-06-10T04:10:00.382Z,19.15
2018-06-10T04:11:01.061Z,19.17
2018-06-10T04:12:00.383Z,19.24
2018-06-10T04:13:00.358Z,19.30
2018-06-10T04:14:00.326Z,19.37
2018-06-10T04:15:00.267Z,19.38
2018-06-10T04:16:00.239Z,19.52
2018-06-10T04:17:00.217Z,19.80
2018-06-10T04:18:00.235Z,20.02
2018-06-10T04:19:00.195Z,20.22
2018-06-10T04:20:01.066Z,20.19
2018-06-10T04:21:00.125Z,20.27
2018-06-10T04:22:00.105Z,20.19
2018-06-10T04:23:00.131Z,20.25
2018-06-10T04:24:00.062Z,20.20
2018-06-10T04:25:00.054Z,20.20
2018-06-10T04:26:00.087Z,20.25
2018-06-10T04:27:00.563Z,20.38
2018-06-10T04:28:00.026Z,20.37
2018-06-10T04:28:59.944Z,20.48
2018-06-10T04:30:00.563Z,20.49
2018-06-10T04:30:59.908Z,20.44
2018-06-10T04:32:00.568Z,20.51
2018-06-10T04:32:59.902Z,20.42
2018-06-10T04:34:00.572Z,20.46
2018-06-10T04:34:59.816Z,20.53
2018-06-10T04:35:59.833Z,20.58
2018-06-10T04:36:59.770Z,20.51
2018-06-10T04:38:00.564Z,20.64
2018-06-10T04:38:59.772Z,20.63
2018-06-10T04:39:59.705Z,20.66
2018-06-10T04:41:00.581Z,20.61
2018-06-10T04:41:59.675Z,20.63
2018-06-10T04:42:59.634Z,20.72
2018-06-10T04:43:59.660Z,20.78
2018-06-10T04:44:59.592Z,20.85
2018-06-10T04:45:59.628Z,20.85
2018-06-10T04:46:59.556Z,20.97
2018-06-10T04:47:59.528Z,20.96
2018-06-10T04:48:59.547Z,21.06
2018-06-10T04:49:59.521Z,21.08
2018-06-10T04:50:59.624Z,21.11
2018-06-10T04:51:59.444Z,21.19
2018-06-10T04:52:59.478Z,21.21
2018-06-10T04:53:59.400Z,21.34
2018-06-10T04:54:59.422Z,21.38
2018-06-10T04:55:59.623Z,21.49
2018-06-10T04:56:59.340Z,21.52
2018-06-10T04:57:59.319Z,21.59
2018-06-10T04:58:59.295Z,21.73
2018-06-10T04:59:59.625Z,21.77
2018-06-10T05:00:59.249Z,21.76
2018-06-10T05:01:59.231Z,21.77
2018-06-10T05:02:59.215Z,21.90
2018-06-10T05:04:00.077Z,21.93
2018-06-10T05:04:59.206Z,21.99
2018-06-10T05:05:59.146Z,22.02
2018-06-10T05:06:59.125Z,22.11
2018-06-10T05:07:59.159Z,22.11
2018-06-10T05:09:00.077Z,22.23
2018-06-10T05:09:59.059Z,22.23
2018-06-10T05:10:59.039Z,22.39
2018-06-10T05:11:59.020Z,22.49
2018-06-10T05:12:59.044Z,22.67
2018-06-10T05:13:58.978Z,22.79
2018-06-10T05:14:58.981Z,22.82
2018-06-10T05:15:58.939Z,22.91
2018-06-10T05:16:58.931Z,22.96
2018-06-10T05:17:58.933Z,23.00
2018-06-10T05:18:58.920Z,23.15
2018-06-10T05:19:58.918Z,23.19
2018-06-10T05:20:58.834Z,23.38
2018-06-10T05:21:58.813Z,23.38
2018-06-10T05:22:58.807Z,23.38
2018-06-10T05:23:58.822Z,23.28
2018-06-10T05:24:58.787Z,23.42
2018-06-10T05:25:58.735Z,23.42
2018-06-10T05:26:58.720Z,23.45
2018-06-10T05:27:58.694Z,23.47
2018-06-10T05:28:58.731Z,23.50
2018-06-10T05:29:58.699Z,23.62
2018-06-10T05:30:58.636Z,23.66
2018-06-10T05:31:58.632Z,23.63
2018-06-10T05:32:58.598Z,23.53
2018-06-10T05:33:58.578Z,23.64
2018-06-10T05:34:58.640Z,23.63
2018-06-10T05:35:58.667Z,23.63
2018-06-10T05:36:58.520Z,23.62
2018-06-10T05:37:58.521Z,23.77
2018-06-10T05:38:58.479Z,23.87
2018-06-10T05:39:58.509Z,23.93
2018-06-10T05:40:58.447Z,23.94
2018-06-10T05:41:58.419Z,24.02
2018-06-10T05:42:58.411Z,24.07
2018-06-10T05:43:58.383Z,24.17
2018-06-10T05:44:58.414Z,24.27
2018-06-10T05:45:58.344Z,24.39
2018-06-10T05:46:58.326Z,24.55
2018-06-10T05:47:58.312Z,24.58
2018-06-10T05:48:58.285Z,24.70
2018-06-10T05:49:58.312Z,24.71
2018-06-10T05:50:58.307Z,24.92
2018-06-10T05:51:58.232Z,25.17
2018-06-10T05:52:58.237Z,25.19
2018-06-10T05:53:58.191Z,25.38
2018-06-10T05:54:58.189Z,25.54
2018-06-10T05:55:58.220Z,25.64
2018-06-10T05:56:58.144Z,25.82
2018-06-10T05:57:58.117Z,25.94
2018-06-10T05:58:58.098Z,26.06
2018-06-10T05:59:58.081Z,26.16
2018-06-10T06:00:58.110Z,26.32
2018-06-10T06:01:58.059Z,26.37
2018-06-10T06:02:58.082Z,26.41
2018-06-10T06:03:58.010Z,26.53
2018-06-10T06:04:58.019Z,26.64
2018-06-10T06:05:57.977Z,26.81
2018-06-10T06:06:58.009Z,26.72
2018-06-10T06:07:57.945Z,26.84
2018-06-10T06:08:57.921Z,26.90
2018-06-10T06:09:57.905Z,27.04
2018-06-10T06:10:57.973Z,27.05
2018-06-10T06:11:57.915Z,27.21
2018-06-10T06:12:57.906Z,27.19
2018-06-10T06:13:57.837Z,27.31
2018-06-10T06:14:57.827Z,27.30
2018-06-10T06:15:57.801Z,27.38
2018-06-10T06:16:57.838Z,27.43
2018-06-10T06:17:57.774Z,27.53
2018-06-10T06:18:57.797Z,27.64
2018-06-10T06:19:57.739Z,27.81
2018-06-10T06:20:57.723Z,27.90
2018-06-10T06:21:57.755Z,27.91
2018-06-10T06:22:57.690Z,27.98
2018-06-10T06:23:57.669Z,27.94
2018-06-10T06:24:57.654Z,28.05
2018-06-10T06:25:57.639Z,28.12
2018-06-10T06:26:57.678Z,28.14
2018-06-10T06:27:57.604Z,28.21
2018-06-10T06:28:57.588Z,28.27
2018-06-10T06:29:57.569Z,28.28
2018-06-10T06:30:57.560Z,28.31
2018-06-10T06:31:57.592Z,28.31
2018-06-10T06:32:57.599Z,28.39
2018-06-10T06:33:58.099Z,28.35
2018-06-10T06:34:57.492Z,28.39
2018-06-10T06:35:57.476Z,28.48
2018-06-10T06:36:57.460Z,28.46
2018-06-10T06:37:57.507Z,28.58
2018-06-10T06:38:57.430Z,28.64
2018-06-10T06:39:57.417Z,28.64
2018-06-10T06:40:57.395Z,28.70
2018-06-10T06:41:57.382Z,28.70
2018-06-10T06:42:57.421Z,28.63
2018-06-10T06:43:57.350Z,28.57
2018-06-10T06:44:57.331Z,28.55
2018-06-10T06:45:57.318Z,28.49
2018-06-10T06:46:57.301Z,28.38
2018-06-10T06:47:57.330Z,28.35
2018-06-10T06:48:57.319Z,28.31
2018-06-10T06:49:57.256Z,28.21
2018-06-10T06:50:58.010Z,28.26
2018-06-10T06:51:57.226Z,28.27
2018-06-10T06:52:57.212Z,28.23
2018-06-10T06:53:57.247Z,28.09
2018-06-10T06:54:57.176Z,28.06
2018-06-10T06:55:57.160Z,28.06
2018-06-10T06:56:57.145Z,28.06
2018-06-10T06:57:57.173Z,28.01
2018-06-10T06:58:57.167Z,28.08
2018-06-10T06:59:57.093Z,27.81
2018-06-10T07:00:57.121Z,27.74
2018-06-10T07:01:57.061Z,27.55
2018-06-10T07:02:57.083Z,27.48
2018-06-10T07:03:57.067Z,27.43
2018-06-10T07:04:57.057Z,27.43
2018-06-10T07:05:56.996Z,27.38
2018-06-10T07:06:56.980Z,27.27
2018-06-10T07:07:56.966Z,27.33
2018-06-10T07:08:56.988Z,27.21
2018-06-10T07:09:56.986Z,27.27
2018-06-10T07:10:56.918Z,27.21
2018-06-10T07:11:56.902Z,27.21
2018-06-10T07:12:56.882Z,27.16
2018-06-10T07:13:56.863Z,27.27
2018-06-10T07:14:56.892Z,27.28
2018-06-10T07:15:56.829Z,27.23
2018-06-10T07:16:56.855Z,27.23
2018-06-10T07:17:56.796Z,27.16
2018-06-10T07:18:56.777Z,27.19
2018-06-10T07:19:56.825Z,27.16
2018-06-10T07:20:56.787Z,27.21
2018-06-10T07:21:56.725Z,27.30
2018-06-10T07:22:56.715Z,27.30
2018-06-10T07:23:56.695Z,27.27
2018-06-10T07:24:56.676Z,27.34
2018-06-10T07:25:56.724Z,27.45
2018-06-10T07:26:56.642Z,27.64
2018-06-10T07:27:56.627Z,27.53
2018-06-10T07:28:56.610Z,27.53
2018-06-10T07:29:56.594Z,27.43
2018-06-10T07:30:56.616Z,27.36
2018-06-10T07:31:56.611Z,27.34
2018-06-10T07:32:56.541Z,27.37
2018-06-10T07:33:56.528Z,27.42
2018-06-10T07:34:56.511Z,27.55
2018-06-10T07:35:56.494Z,27.64
2018-06-10T07:36:56.515Z,27.84
2018-06-10T07:37:56.500Z,27.89
2018-06-10T07:38:56.438Z,27.86
2018-06-10T07:39:56.470Z,27.87
2018-06-10T07:40:56.412Z,27.86
2018-06-10T07:41:56.390Z,27.91
2018-06-10T07:42:56.388Z,27.84
2018-06-10T07:43:56.358Z,27.81
2018-06-10T07:44:56.386Z,27.91
2018-06-10T07:45:56.361Z,27.96
2018-06-10T07:46:56.355Z,28.01
2018-06-10T07:47:56.290Z,28.05
2018-06-10T07:48:56.270Z,28.14
2018-06-10T07:49:56.255Z,28.21
2018-06-10T07:50:56.286Z,28.27
2018-06-10T07:51:56.224Z,28.36
2018-06-10T07:52:56.287Z,28.35
2018-06-10T07:53:56.202Z,28.36
2018-06-10T07:54:56.177Z,28.45
2018-06-10T07:55:56.221Z,28.54
2018-06-10T07:56:56.150Z,28.58
2018-06-10T07:58:01.174Z,28.57
2018-06-10T07:58:56.108Z,28.68
2018-06-10T07:59:56.098Z,28.58
2018-06-10T08:00:56.083Z,28.61
2018-06-10T08:01:56.060Z,28.63
2018-06-10T08:02:56.117Z,28.63
2018-06-10T08:03:56.051Z,28.64
2018-06-10T08:04:56.016Z,28.61
2018-06-10T08:05:55.993Z,28.68
2018-06-10T08:06:55.980Z,28.75
2018-06-10T08:07:56.029Z,28.78
2018-06-10T08:08:55.947Z,28.79
2018-06-10T08:09:55.930Z,28.83
2018-06-10T08:10:55.915Z,28.85
2018-06-10T08:11:55.908Z,28.86
2018-06-10T08:12:55.926Z,28.88
2018-06-10T08:13:55.873Z,28.86
2018-06-10T08:14:55.899Z,28.95
2018-06-10T08:15:55.838Z,28.98
2018-06-10T08:16:55.865Z,28.88
2018-06-10T08:17:55.853Z,28.86
2018-06-10T08:18:55.786Z,28.90
2018-06-10T08:19:55.771Z,28.85
2018-06-10T08:20:55.752Z,28.88
2018-06-10T08:21:55.737Z,28.82
2018-06-10T08:22:55.780Z,28.65
2018-06-10T08:23:55.712Z,28.57
2018-06-10T08:24:55.688Z,28.53
2018-06-10T08:25:55.711Z,28.43
2018-06-10T08:26:57.767Z,28.49
2018-06-10T08:27:55.688Z,28.58
2018-06-10T08:28:55.675Z,28.61
2018-06-10T08:29:55.611Z,28.64
2018-06-10T08:30:55.600Z,28.68
2018-06-10T08:31:55.702Z,28.65
2018-06-10T08:32:55.565Z,28.64
2018-06-10T08:33:55.595Z,28.73
2018-06-10T08:34:55.573Z,28.75
2018-06-10T08:35:55.512Z,28.76
2018-06-10T08:36:55.498Z,28.76
2018-06-10T08:37:55.480Z,28.78
2018-06-10T08:38:55.472Z,28.80
2018-06-10T08:39:55.491Z,28.85
2018-06-10T08:40:55.431Z,28.86
2018-06-10T08:41:55.414Z,28.94
2018-06-10T08:42:55.413Z,28.94
2018-06-10T08:43:55.452Z,28.94
2018-06-10T08:44:55.412Z,28.92
2018-06-10T08:45:55.360Z,28.80
2018-06-10T08:46:55.333Z,28.83
2018-06-10T08:47:55.316Z,28.76
2018-06-10T08:48:55.299Z,28.73
2018-06-10T08:49:55.330Z,28.72
2018-06-10T08:50:55.269Z,28.80
2018-06-10T08:51:55.301Z,28.78
2018-06-10T08:52:55.233Z,28.85
2018-06-10T08:53:55.220Z,28.85
2018-06-10T08:54:55.244Z,28.94
2018-06-10T08:55:55.186Z,28.86
2018-06-10T08:56:55.207Z,28.98
2018-06-10T08:57:55.212Z,29.01
2018-06-10T08:58:55.176Z,29.01
2018-06-10T08:59:55.122Z,29.03
2018-06-10T09:00:55.117Z,29.03
2018-06-10T09:01:55.136Z,29.05
2018-06-10T09:02:55.134Z,29.15
2018-06-10T09:03:55.054Z,29.24
2018-06-10T09:04:55.090Z,29.36
2018-06-10T09:05:55.025Z,29.35
2018-06-10T09:06:55.008Z,29.35
2018-06-10T09:07:55.036Z,29.47
2018-06-10T09:08:55.066Z,29.45
2018-06-10T09:09:55.653Z,29.54
2018-06-10T09:10:54.991Z,29.65
2018-06-10T09:11:54.931Z,29.61
2018-06-10T09:12:54.913Z,29.58
2018-06-10T09:13:54.957Z,29.67
2018-06-10T09:14:54.939Z,29.65
2018-06-10T09:15:54.868Z,29.70
2018-06-10T09:16:54.851Z,29.77
2018-06-10T09:17:54.839Z,29.87
2018-06-10T09:18:54.868Z,29.77
2018-06-10T09:19:54.847Z,29.84
2018-06-10T09:20:54.791Z,29.92
2018-06-10T09:21:54.773Z,29.92
2018-06-10T09:22:54.758Z,30.04
2018-06-10T09:23:54.765Z,30.04
2018-06-10T09:24:54.777Z,30.18
2018-06-10T09:25:54.714Z,30.26
2018-06-10T09:26:55.667Z,30.24
2018-06-10T09:27:54.680Z,30.39
2018-06-10T09:28:56.812Z,30.51
2018-06-10T09:29:54.652Z,30.71
2018-06-10T09:30:54.638Z,30.86
2018-06-10T09:31:54.637Z,30.91
2018-06-10T09:32:54.607Z,31.15
2018-06-10T09:33:54.651Z,31.16
2018-06-10T09:34:54.583Z,31.06
2018-06-10T09:35:54.574Z,31.18
2018-06-10T09:36:54.557Z,31.15
2018-06-10T09:37:54.542Z,31.07
2018-06-10T09:38:54.570Z,31.03
2018-06-10T09:39:54.553Z,31.01
2018-06-10T09:40:54.493Z,31.03
2018-06-10T09:41:54.477Z,31.15
2018-06-10T09:42:54.467Z,31.25
2018-06-10T09:43:54.461Z,31.52
2018-06-10T09:44:54.484Z,31.41
2018-06-10T09:45:54.427Z,31.28
2018-06-10T09:46:54.411Z,31.15
2018-06-10T09:47:54.397Z,31.18
2018-06-10T09:48:54.383Z,31.33
2018-06-10T09:49:54.471Z,31.53
2018-06-10T09:50:54.355Z,31.60
2018-06-10T09:51:54.392Z,31.78
2018-06-10T09:52:54.332Z,31.88
2018-06-10T09:53:54.314Z,31.90
2018-06-10T09:54:54.303Z,31.98
2018-06-10T09:55:54.339Z,31.87
2018-06-10T09:56:54.277Z,32.00
2018-06-10T09:57:54.260Z,32.06
2018-06-10T09:58:54.288Z,31.97
2018-06-10T09:59:54.238Z,31.98
2018-06-10T10:00:54.222Z,31.98
2018-06-10T10:01:54.266Z,31.91
2018-06-10T10:02:54.221Z,31.87
2018-06-10T10:03:54.185Z,31.87
2018-06-10T10:04:54.180Z,32.05
2018-06-10T10:05:54.160Z,31.97
2018-06-10T10:06:54.193Z,32.19
2018-06-10T10:07:54.132Z,32.20
2018-06-10T10:08:54.204Z,32.31
2018-06-10T10:09:54.113Z,32.31
2018-06-10T10:10:54.093Z,32.37
2018-06-10T10:11:54.223Z,32.45
2018-06-10T10:12:54.070Z,32.53
2018-06-10T10:13:54.056Z,32.61
2018-06-10T10:14:54.045Z,32.71
2018-06-10T10:15:54.030Z,32.71
2018-06-10T10:16:54.064Z,32.84
2018-06-10T10:17:54.004Z,32.93
2018-06-10T10:18:53.996Z,32.96
2018-06-10T10:19:54.034Z,32.99
2018-06-10T10:20:53.973Z,32.89
2018-06-10T10:21:53.960Z,32.90
2018-06-10T10:22:53.949Z,32.84
2018-06-10T10:23:53.939Z,32.83
2018-06-10T10:24:53.963Z,32.81
2018-06-10T10:25:53.966Z,32.80
2018-06-10T10:26:53.922Z,32.81
2018-06-10T10:27:53.882Z,32.91
2018-06-10T10:28:53.872Z,32.93
2018-06-10T10:29:53.857Z,32.98
2018-06-10T10:30:53.898Z,33.05
2018-06-10T10:31:53.845Z,33.06
2018-06-10T10:32:53.824Z,33.02
2018-06-10T10:33:53.914Z,32.99
2018-06-10T10:34:53.803Z,32.96
2018-06-10T10:35:53.837Z,33.06
2018-06-10T10:36:53.817Z,33.17
2018-06-10T10:37:53.762Z,33.31
2018-06-10T10:38:53.746Z,33.40
2018-06-10T10:39:53.734Z,33.43
2018-06-10T10:40:53.728Z,33.41
2018-06-10T10:41:53.764Z,33.23
2018-06-10T10:42:53.699Z,33.18
2018-06-10T10:43:53.688Z,33.08
2018-06-10T10:44:53.673Z,33.12
2018-06-10T10:45:53.664Z,33.08
2018-06-10T10:46:53.739Z,33.11
2018-06-10T10:47:53.645Z,33.16
2018-06-10T10:48:53.661Z,33.18
2018-06-10T10:49:53.614Z,33.29
2018-06-10T10:50:53.604Z,33.23
2018-06-10T10:51:53.666Z,33.16
2018-06-10T10:52:54.183Z,33.13
2018-06-10T10:53:53.567Z,33.24
2018-06-10T10:54:53.597Z,33.11
2018-06-10T10:55:53.542Z,33.06
2018-06-10T10:56:53.528Z,33.06
2018-06-10T10:57:53.559Z,32.96
2018-06-10T10:58:53.509Z,32.90
2018-06-10T10:59:53.551Z,32.72
2018-06-10T11:00:53.477Z,32.71
2018-06-10T11:01:53.522Z,32.68
2018-06-10T11:02:53.455Z,32.42
2018-06-10T11:03:53.441Z,32.30
2018-06-10T11:04:53.472Z,32.16
2018-06-10T11:05:53.414Z,32.06
2018-06-10T11:06:53.404Z,32.03
2018-06-10T11:07:53.390Z,31.86
2018-06-10T11:08:54.189Z,31.86
2018-06-10T11:09:53.400Z,31.82
2018-06-10T11:10:53.394Z,31.90
2018-06-10T11:11:53.334Z,31.95
2018-06-10T11:12:53.324Z,31.88
2018-06-10T11:13:53.309Z,31.98
2018-06-10T11:14:53.310Z,32.01
2018-06-10T11:15:53.323Z,31.97
2018-06-10T11:16:53.276Z,32.01
2018-06-10T11:17:53.278Z,32.09
2018-06-10T11:18:54.205Z,31.98
2018-06-10T11:19:53.229Z,31.98
2018-06-10T11:20:53.259Z,32.03
2018-06-10T11:21:53.198Z,31.95
2018-06-10T11:22:53.188Z,31.86
2018-06-10T11:23:53.232Z,31.93
2018-06-10T11:24:53.159Z,31.77
2018-06-10T11:25:53.149Z,31.82
2018-06-10T11:26:53.139Z,31.80
2018-06-10T11:27:53.123Z,31.68
2018-06-10T11:28:53.254Z,31.50
2018-06-10T11:29:53.103Z,31.16
2018-06-10T11:30:53.077Z,30.70
2018-06-10T11:31:53.064Z,30.57
2018-06-10T11:32:53.052Z,30.31
2018-06-10T11:33:53.272Z,30.06
2018-06-10T11:34:53.019Z,29.58
2018-06-10T11:35:53.004Z,28.90
2018-06-10T11:36:52.994Z,28.45
2018-06-10T11:37:52.971Z,28.11
2018-06-10T11:38:53.126Z,27.80
2018-06-10T11:39:52.943Z,27.45
2018-06-10T11:40:52.921Z,27.15
2018-06-10T11:41:52.905Z,26.81
2018-06-10T11:42:52.889Z,26.53
2018-06-10T11:43:52.918Z,26.38
2018-06-10T11:44:52.905Z,26.09
2018-06-10T11:45:52.834Z,25.93
2018-06-10T11:46:52.852Z,25.64
2018-06-10T11:47:52.802Z,25.51
2018-06-10T11:48:53.253Z,25.32
2018-06-10T11:49:52.998Z,25.30
2018-06-10T11:50:53.157Z,25.20
2018-06-10T11:51:53.022Z,25.23
2018-06-10T11:52:52.764Z,25.00
2018-06-10T11:53:53.493Z,25.00
2018-06-10T11:54:53.110Z,24.96
2018-06-10T11:55:52.872Z,24.86
2018-06-10T11:56:52.833Z,24.83
2018-06-10T11:57:52.867Z,24.66
2018-06-10T11:58:52.778Z,24.78
2018-06-10T11:59:53.029Z,24.75
2018-06-10T12:00:52.817Z,24.67
2018-06-10T12:01:52.795Z,24.55
2018-06-10T12:02:52.801Z,24.48
2018-06-10T12:03:52.773Z,24.45
2018-06-10T12:04:52.890Z,24.33
2018-06-10T12:05:52.460Z,24.36
2018-06-10T12:06:52.441Z,24.18
2018-06-10T12:07:52.464Z,24.08
2018-06-10T12:08:52.403Z,24.09
2018-06-10T12:09:52.460Z,23.97
2018-06-10T12:10:53.270Z,23.99
2018-06-10T12:11:52.380Z,23.96
2018-06-10T12:12:52.378Z,24.00
2018-06-10T12:13:52.344Z,24.09
2018-06-10T12:14:52.292Z,24.12
2018-06-10T12:15:53.207Z,24.07
2018-06-10T12:16:52.284Z,24.04
2018-06-10T12:17:52.279Z,23.96
2018-06-10T12:18:52.198Z,24.00
2018-06-10T12:19:52.186Z,23.90
2018-06-10T12:20:52.165Z,23.72
2018-06-10T12:21:52.212Z,23.38
2018-06-10T12:22:52.291Z,23.32
2018-06-10T12:23:52.133Z,23.35
2018-06-10T12:24:52.082Z,23.26
2018-06-10T12:25:52.056Z,23.19
2018-06-10T12:26:52.044Z,23.16
2018-06-10T12:27:52.059Z,23.14
2018-06-10T12:28:52.004Z,23.06
2018-06-10T12:29:52.032Z,23.01
2018-06-10T12:30:51.977Z,23.16
2018-06-10T12:31:51.937Z,23.21
2018-06-10T12:32:51.915Z,23.41
2018-06-10T12:33:51.900Z,23.37
2018-06-10T12:34:51.946Z,23.63
2018-06-10T12:35:51.859Z,23.79
2018-06-10T12:36:51.846Z,23.89
2018-06-10T12:37:51.817Z,24.08
2018-06-10T12:38:51.792Z,24.17
2018-06-10T12:39:51.829Z,24.37
2018-06-10T12:40:51.798Z,24.66
2018-06-10T12:41:51.745Z,24.77
2018-06-10T12:42:51.738Z,24.86
2018-06-10T12:43:51.701Z,24.96
2018-06-10T12:44:51.674Z,24.97
2018-06-10T12:45:51.722Z,25.11
2018-06-10T12:46:51.642Z,25.22
2018-06-10T12:47:51.620Z,25.29
2018-06-10T12:48:51.602Z,25.29
2018-06-10T12:49:51.582Z,25.29
2018-06-10T12:50:51.612Z,25.29
2018-06-10T12:51:51.581Z,25.32